»·PEaware :: QXE2436 KBOI-KGTF

QXE2436 :: KBOI-KGTF

FLIGHT INFORMATION

Flight Status: Arrived
Operator:
Horizon Air
More flights by this operator :: More flights under this callsign
Pilot: Trevor S. (2559)
Aircraft: DEHAVILLAND DASH 8 400
(DH8D)
More flights by this aircraft type
Origin: KBOI Boise Air Terminal/Gowen
United States
Destination: KGTF Great Falls Intl
United States
More flights between these airports :: More routes between these airports
Route: +BOI V113 HLN V21 GTF
File this flight plan on PilotEdge
Remarks: ETE 0101 FOB 0250 FSEconomy
Altitude:
(Current/Filed)
25,000ft
Speed:
(Current/Filed)
342kts
Departed: 25-Apr-20 05:46 PM
Arrived: 25-Apr-20 06:54 PM
Distance/Time
Traveled:
312nm/1:08
Distance/Time
To Go:
Arrived

Flight Plot

Page will automatically refresh every two minutes.


Map Options




Map Legend


Flown Route
Filed Route
Departure Airport
Arrival Airport
Navaid (VOR, NDB)
Fix

Horizontal Profiles

Position Reports

Time Latitude Longitude Heading Altitude Ground
Speed
25-Apr-20 17:14 43.567520 -116.222867 13 2878ft 0kts
25-Apr-20 17:15 43.567520 -116.222867 13 2878ft 0kts
25-Apr-20 17:16 43.567520 -116.222867 13 2878ft 0kts
25-Apr-20 17:17 43.567520 -116.222867 13 2878ft 0kts
25-Apr-20 17:18 43.567520 -116.222867 13 2878ft 0kts
25-Apr-20 17:19 43.567520 -116.222867 13 2878ft 0kts
25-Apr-20 17:20 43.567520 -116.222867 13 2878ft 0kts
25-Apr-20 17:21 43.567520 -116.222867 13 2878ft 0kts
25-Apr-20 17:22 43.567520 -116.222867 13 2878ft 0kts
25-Apr-20 17:23 43.567520 -116.222867 13 2878ft 0kts
25-Apr-20 17:25 43.567520 -116.222867 13 2878ft 0kts
25-Apr-20 17:26 43.567520 -116.222867 13 2878ft 0kts
25-Apr-20 17:27 43.567520 -116.222867 13 2878ft 0kts
25-Apr-20 17:28 43.567520 -116.222867 13 2878ft 0kts
25-Apr-20 17:29 43.567520 -116.222867 13 2878ft 0kts
25-Apr-20 17:30 43.567520 -116.222867 13 2878ft 0kts
25-Apr-20 17:31 43.567520 -116.222867 13 2878ft 0kts
25-Apr-20 17:32 43.567520 -116.222867 13 2878ft 0kts
25-Apr-20 17:33 43.567520 -116.222867 13 2878ft 0kts
25-Apr-20 17:34 43.567520 -116.222867 13 2878ft 0kts
25-Apr-20 17:35 43.567520 -116.222867 13 2878ft 0kts
25-Apr-20 17:36 43.567520 -116.222866 13 2878ft 0kts
25-Apr-20 17:37 43.567520 -116.222866 13 2878ft 0kts
25-Apr-20 17:38 43.567520 -116.222866 13 2878ft 0kts
25-Apr-20 17:39 43.567147 -116.222902 311 2878ft 3kts
25-Apr-20 17:39 43.567083 -116.222744 292 2878ft 0kts
25-Apr-20 17:40 43.567084 -116.222744 292 2878ft 0kts
25-Apr-20 17:42 43.567084 -116.222744 292 2878ft 0kts
25-Apr-20 17:43 43.567129 -116.223097 263 2878ft 7kts
25-Apr-20 17:43 43.568517 -116.228206 295 2878ft 27kts
25-Apr-20 17:44 43.570850 -116.236036 226 2878ft 0kts
25-Apr-20 17:45 43.568456 -116.231856 113 2879ft 79kts
25-Apr-20 17:46 43.553586 -116.191851 113 3239ft 116kts
25-Apr-20 17:47 43.538579 -116.150776 116 3837ft 116kts
25-Apr-20 17:48 43.513246 -116.154044 260 3981ft 149kts
25-Apr-20 17:49 43.532003 -116.212291 295 4840ft 163kts
25-Apr-20 17:50 43.551538 -116.267442 295 6097ft 157kts
25-Apr-20 17:51 43.571233 -116.323328 293 7160ft 161kts
25-Apr-20 17:52 43.602117 -116.364218 11 8143ft 175kts
25-Apr-20 17:53 43.630711 -116.311418 64 9022ft 178kts
25-Apr-20 17:54 43.654424 -116.248246 63 9769ft 193kts
25-Apr-20 17:55 43.679825 -116.181154 63 10603ft 199kts
25-Apr-20 17:56 43.705793 -116.111700 62 11416ft 205kts
25-Apr-20 17:57 43.732735 -116.039266 61 11983ft 209kts
25-Apr-20 17:58 43.759956 -115.965930 59 14313ft 217kts
25-Apr-20 17:59 43.792181 -115.882515 59 15519ft 275kts
25-Apr-20 18:00 43.836858 -115.794002 40 17041ft 287kts
25-Apr-20 18:01 43.894108 -115.715735 40 18707ft 292kts
25-Apr-20 18:02 43.951088 -115.635627 40 20269ft 291kts
25-Apr-20 18:03 44.007250 -115.556293 39 21696ft 290kts
25-Apr-20 18:04 44.064696 -115.474818 39 22854ft 297kts
25-Apr-20 18:05 44.123286 -115.391588 39 23882ft 304kts
25-Apr-20 18:06 44.183098 -115.306496 38 24801ft 311kts
25-Apr-20 18:07 44.246216 -115.216729 39 25015ft 339kts
25-Apr-20 18:08 44.313457 -115.120434 39 25025ft 360kts
25-Apr-20 18:09 44.384429 -115.018406 39 25023ft 377kts
25-Apr-20 18:10 44.458574 -114.911354 40 25012ft 387kts
25-Apr-20 18:11 44.533472 -114.802603 40 25008ft 392kts
25-Apr-20 18:12 44.609051 -114.692360 40 25008ft 395kts
25-Apr-20 18:13 44.684680 -114.581686 40 25008ft 394kts
25-Apr-20 18:14 44.759968 -114.471233 40 25007ft 392kts
25-Apr-20 18:15 44.834796 -114.360958 40 25008ft 391kts
25-Apr-20 18:16 44.909717 -114.250135 40 25008ft 390kts
25-Apr-20 18:17 44.983901 -114.139944 40 25008ft 389kts
25-Apr-20 18:18 45.059626 -114.031817 35 25008ft 386kts
25-Apr-20 18:19 45.138930 -113.932379 35 25003ft 386kts
25-Apr-20 18:20 45.217025 -113.830206 35 24994ft 385kts
25-Apr-20 18:21 45.295226 -113.728651 35 24995ft 383kts
25-Apr-20 18:22 45.372680 -113.628583 32 25001ft 375kts
25-Apr-20 18:23 45.457411 -113.548797 25 25003ft 365kts
25-Apr-20 18:24 45.542002 -113.470697 25 25004ft 363kts
25-Apr-20 18:25 45.626425 -113.392446 25 25004ft 363kts
25-Apr-20 18:26 45.710608 -113.314166 25 25005ft 363kts
25-Apr-20 18:27 45.794409 -113.235702 25 25006ft 367kts
25-Apr-20 18:28 45.878394 -113.156347 24 25005ft 371kts
25-Apr-20 18:29 45.964569 -113.074426 23 25032ft 375kts
25-Apr-20 18:30 46.051742 -112.991839 23 25050ft 380kts
25-Apr-20 18:31 46.139550 -112.908963 23 25063ft 383kts
25-Apr-20 18:32 46.227908 -112.825302 23 25070ft 384kts
25-Apr-20 18:33 46.316217 -112.741143 23 25099ft 385kts
25-Apr-20 18:34 46.405240 -112.656488 24 25085ft 385kts
25-Apr-20 18:35 46.494455 -112.570505 23 25104ft 386kts
25-Apr-20 18:36 46.583670 -112.484300 23 25112ft 388kts
25-Apr-20 18:37 46.673196 -112.398427 24 25106ft 388kts
25-Apr-20 18:38 46.762538 -112.312397 25 25100ft 387kts
25-Apr-20 18:39 46.849129 -112.227595 25 24659ft 373kts
25-Apr-20 18:40 46.933167 -112.145643 25 24162ft 361kts
25-Apr-20 18:41 47.015138 -112.064562 25 23662ft 354kts
25-Apr-20 18:42 47.096321 -111.984354 25 22484ft 371kts
25-Apr-20 18:43 47.183245 -111.898603 25 20356ft 387kts
25-Apr-20 18:44 47.272484 -111.810049 26 18153ft 390kts
25-Apr-20 18:45 47.361917 -111.721438 28 15941ft 385kts
25-Apr-20 18:46 47.440273 -111.624244 42 13833ft 363kts
25-Apr-20 18:47 47.507187 -111.521794 41 11760ft 338kts
25-Apr-20 18:48 47.569041 -111.427230 39 9553ft 296kts
25-Apr-20 18:49 47.602751 -111.333442 106 7414ft 258kts
25-Apr-20 18:50 47.557600 -111.280615 185 5645ft 186kts
25-Apr-20 18:51 47.519628 -111.309186 225 4650ft 121kts
25-Apr-20 18:52 47.495540 -111.344944 227 3846ft 113kts
25-Apr-20 18:53 47.482041 -111.364410 149 3685ft 7kts
25-Apr-20 18:54 47.483433 -111.360250 43 3685ft 15kts
25-Apr-20 18:55 47.482652 -111.356423 179 3684ft 0kts
25-Apr-20 18:56 47.482652 -111.356423 179 3684ft 0kts
25-Apr-20 18:57 47.482652 -111.356423 179 3684ft 0kts
25-Apr-20 18:58 47.482652 -111.356423 179 3684ft 0kts
25-Apr-20 18:59 47.482652 -111.356423 179 3684ft 0kts
25-Apr-20 19:00 47.482652 -111.356423 179 3684ft 0kts
25-Apr-20 19:01 47.482652 -111.356423 179 3684ft 0kts

Navigation Log

Ident Type
Flight plan parsing failed, navigation log unavailable